Time;durP1;ratioP1;P1;durP2;ratioP2;P2;SDS_P1;SDS_P2;PMS_P1;PMS_P2;Temp;Humidity;BMP_temperature;BMP_pressure;BME280_temperature;BME280_humidity;BME280_pressure;Samples;Min_cycle;Max_cycle;Signal;HPM_P1;HPM_P2
2023/04/12 00:02:03;;;;;;;7.57;3.00;;;;;2.60;95912.00;;;;8364711;28;20288;-71
2023/04/12 00:06:09;;;;;;;8.00;3.53;;;;;2.60;95910.00;;;;8364343;28;20205;-71
2023/04/12 00:10:13;;;;;;;5.87;3.17;;;;;2.70;95898.00;;;;8363505;28;20217;-70
2023/04/12 00:14:16;;;;;;;4.57;3.07;;;;;2.70;95899.00;;;;8363919;28;20189;-70
2023/04/12 00:18:23;;;;;;;13.37;3.83;;;;;2.70;95890.00;;;;8363336;28;20201;-71
2023/04/12 00:22:28;;;;;;;6.80;3.20;;;;;2.70;95881.00;;;;8363580;28;20276;-71
2023/04/12 00:26:37;;;;;;;7.40;3.80;;;;;2.80;95870.00;;;;8364309;28;20189;-71
2023/04/12 00:30:41;;;;;;;10.00;4.17;;;;;2.80;95863.00;;;;8363270;28;20272;-70
2023/04/12 00:34:47;;;;;;;9.20;3.63;;;;;3.00;95854.00;;;;8364265;28;20215;-71
2023/04/12 00:38:50;;;;;;;9.43;4.57;;;;;3.10;95854.00;;;;8368732;28;20208;-71
2023/04/12 00:42:55;;;;;;;9.40;4.67;;;;;3.30;95834.00;;;;8370140;28;20193;-71
2023/04/12 00:46:59;;;;;;;6.93;4.33;;;;;3.50;95835.00;;;;8369460;28;20530;-71
2023/04/12 00:51:03;;;;;;;12.03;4.60;;;;;3.60;95826.00;;;;8366902;28;20230;-71
2023/04/12 00:55:09;;;;;;;12.87;4.97;;;;;3.80;95819.00;;;;8364194;28;20190;-72
2023/04/12 00:59:14;;;;;;;6.97;4.10;;;;;3.90;95823.00;;;;8369142;28;20204;-71
2023/04/12 01:03:21;;;;;;;15.37;4.37;;;;;4.00;95811.00;;;;8368645;28;20570;-71
2023/04/12 01:07:36;;;;;;;6.20;4.07;;;;;4.00;95811.00;;;;8369367;28;20193;-71
2023/04/12 01:11:43;;;;;;;9.97;4.00;;;;;4.00;95803.00;;;;8368400;28;20222;-71
2023/04/12 01:15:54;;;;;;;11.53;4.20;;;;;4.00;95807.00;;;;8368695;28;20200;-70
2023/04/12 01:20:12;;;;;;;8.23;4.13;;;;;4.00;95808.00;;;;8368821;28;20218;-70
2023/04/12 01:24:27;;;;;;;9.27;4.10;;;;;4.00;95812.00;;;;8368082;28;20670;-71
2023/04/12 01:28:40;;;;;;;9.83;3.90;;;;;4.10;95791.00;;;;8368160;28;20272;-71
2023/04/12 01:32:46;;;;;;;10.07;4.07;;;;;4.10;95794.00;;;;8367347;28;20225;-71
2023/04/12 01:36:51;;;;;;;9.33;3.80;;;;;4.10;95791.00;;;;8368437;28;20217;-71
2023/04/12 01:40:57;;;;;;;8.37;4.17;;;;;4.10;95792.00;;;;8367773;28;20202;-72
2023/04/12 01:45:03;;;;;;;8.30;4.50;;;;;4.10;95780.00;;;;8368287;28;20194;-72
2023/04/12 01:49:06;;;;;;;5.93;4.13;;;;;4.20;95775.00;;;;8365977;28;20217;-71
2023/04/12 01:53:13;;;;;;;12.37;4.10;;;;;4.10;95772.00;;;;8366935;28;20221;-71
2023/04/12 01:57:18;;;;;;;8.67;4.20;;;;;4.10;95769.00;;;;8365989;28;20233;-72
2023/04/12 02:01:23;;;;;;;7.87;4.50;;;;;4.20;95762.00;;;;8366895;28;20673;-72
2023/04/12 02:05:27;;;;;;;9.53;4.43;;;;;4.20;95761.00;;;;8366679;28;20222;-72
2023/04/12 02:09:37;;;;;;;11.77;4.60;;;;;4.20;95753.00;;;;8367970;28;20194;-72
2023/04/12 02:13:48;;;;;;;9.17;4.93;;;;;4.30;95749.00;;;;8366366;28;20229;-72
2023/04/12 02:17:53;;;;;;;10.10;5.43;;;;;4.40;95752.00;;;;8367148;28;20298;-72
2023/04/12 02:21:56;;;;;;;8.00;4.60;;;;;4.50;95747.00;;;;8366796;28;20238;-72
2023/04/12 02:26:08;;;;;;;14.43;5.97;;;;;4.60;95746.00;;;;8365833;28;20206;-72
2023/04/12 02:30:11;;;;;;;8.83;5.43;;;;;4.60;95731.00;;;;8366732;28;20199;-72
2023/04/12 02:34:23;;;;;;;13.83;5.37;;;;;4.70;95731.00;;;;8365943;28;20222;-72
2023/04/12 02:38:29;;;;;;;10.93;5.53;;;;;4.80;95722.00;;;;8365914;28;20227;-71
2023/04/12 02:42:32;;;;;;;9.83;5.53;;;;;4.80;95711.00;;;;8365697;28;20507;-71
2023/04/12 02:46:37;;;;;;;14.50;5.90;;;;;4.80;95710.00;;;;8366164;28;20198;-72
2023/04/12 02:50:43;;;;;;;8.73;5.57;;;;;4.90;95709.00;;;;8364968;28;20591;-72
2023/04/12 02:54:46;;;;;;;10.63;6.07;;;;;4.90;95701.00;;;;8365215;28;20200;-72
2023/04/12 02:58:50;;;;;;;10.73;5.63;;;;;5.00;95697.00;;;;8365349;28;20538;-72
2023/04/12 03:02:57;;;;;;;14.53;5.80;;;;;5.00;95695.00;;;;8409059;22;20227;-76
2023/04/12 03:07:05;;;;;;;8.60;5.47;;;;;5.10;95694.00;;;;8415992;28;20232;-73
2023/04/12 03:11:11;;;;;;;12.13;5.70;;;;;5.10;95701.00;;;;8410256;28;20248;-74
2023/04/12 03:15:14;;;;;;;11.83;6.00;;;;;5.10;95699.00;;;;8418988;28;20225;-74
2023/04/12 03:19:17;;;;;;;13.13;6.33;;;;;5.20;95692.00;;;;8415948;28;20195;-74
2023/04/12 03:23:24;;;;;;;10.47;5.50;;;;;5.20;95700.00;;;;8420672;28;20234;-74
2023/04/12 03:27:29;;;;;;;8.20;5.63;;;;;5.20;95703.00;;;;8421594;28;20206;-73
2023/04/12 03:31:32;;;;;;;11.80;6.07;;;;;5.20;95709.00;;;;8416974;28;20367;-74
2023/04/12 03:35:35;;;;;;;11.87;5.63;;;;;5.10;95715.00;;;;8418128;28;20598;-74
2023/04/12 03:39:39;;;;;;;9.87;5.93;;;;;5.10;95722.00;;;;8416289;28;20205;-76
2023/04/12 03:43:42;;;;;;;9.10;5.43;;;;;5.10;95706.00;;;;8398349;28;20196;-74
2023/04/12 03:47:52;;;;;;;10.20;5.47;;;;;5.10;95698.00;;;;8419619;28;20198;-73
2023/04/12 03:51:57;;;;;;;7.93;5.90;;;;;5.10;95683.00;;;;8409992;28;20244;-73
2023/04/12 03:56:03;;;;;;;14.07;6.57;;;;;5.10;95675.00;;;;8405233;28;20209;-73
2023/04/12 04:00:08;;;;;;;10.13;6.53;;;;;5.10;95667.00;;;;8388793;28;20206;-74
2023/04/12 04:04:11;;;;;;;12.50;6.90;;;;;5.10;95659.00;;;;8380076;28;20227;-75
2023/04/12 04:08:18;;;;;;;12.87;6.70;;;;;5.10;95659.00;;;;8381824;28;20755;-74
2023/04/12 04:12:27;;;;;;;12.53;7.13;;;;;5.10;95660.00;;;;8383659;28;20222;-73
2023/04/12 04:16:32;;;;;;;15.50;7.20;;;;;5.20;95662.00;;;;8360275;28;20627;-73
2023/04/12 04:20:34;;;;;;;15.07;6.63;;;;;5.20;95666.00;;;;8359102;28;20212;-75
2023/04/12 04:24:37;;;;;;;16.80;9.07;;;;;5.20;95659.00;;;;8381126;28;20202;-74
2023/04/12 04:28:43;;;;;;;19.23;7.57;;;;;5.30;95661.00;;;;8380190;28;20292;-76
2023/04/12 04:32:49;;;;;;;11.97;7.27;;;;;5.30;95648.00;;;;8366045;28;20234;-74
2023/04/12 04:36:52;;;;;;;15.63;8.20;;;;;5.40;95653.00;;;;8376745;28;20304;-74
2023/04/12 04:40:55;;;;;;;14.30;8.70;;;;;5.40;95647.00;;;;8382922;28;20208;-72
2023/04/12 04:45:11;;;;;;;14.47;8.37;;;;;5.50;95645.00;;;;8361190;28;20205;-73
2023/04/12 04:49:14;;;;;;;15.50;7.50;;;;;5.50;95644.00;;;;8388147;28;20184;-74
2023/04/12 04:53:19;;;;;;;20.17;8.83;;;;;5.50;95645.00;;;;8382779;28;20229;-74
2023/04/12 04:57:25;;;;;;;14.30;7.53;;;;;5.60;95637.00;;;;8382728;28;20658;-74
2023/04/12 05:01:34;;;;;;;16.40;8.37;;;;;5.70;95638.00;;;;8379679;28;20269;-75
2023/04/12 05:05:38;;;;;;;16.73;8.80;;;;;5.70;95636.00;;;;8382470;28;20200;-74
2023/04/12 05:09:41;;;;;;;23.17;12.43;;;;;5.80;95630.00;;;;8381565;28;20215;-74
2023/04/12 05:13:44;;;;;;;13.53;8.90;;;;;5.90;95629.00;;;;8376783;28;20659;-75
2023/04/12 05:17:52;;;;;;;15.40;7.87;;;;;6.00;95626.00;;;;8372722;28;20223;-75
2023/04/12 05:21:55;;;;;;;16.97;9.40;;;;;6.10;95616.00;;;;8380883;28;20930;-77
2023/04/12 05:26:01;;;;;;;16.43;8.20;;;;;6.30;95629.00;;;;8379319;28;20239;-76
2023/04/12 05:30:10;;;;;;;9.87;6.43;;;;;6.40;95627.00;;;;8383732;28;20203;-77
2023/04/12 05:34:17;;;;;;;16.33;6.70;;;;;6.50;95633.00;;;;8386061;28;20258;-78
2023/04/12 05:38:20;;;;;;;13.67;6.53;;;;;6.60;95607.00;;;;8385646;28;20246;-76
2023/04/12 05:42:27;;;;;;;10.23;5.87;;;;;6.70;95603.00;;;;8379744;28;20707;-76
2023/04/12 05:46:30;;;;;;;14.77;6.57;;;;;6.80;95593.00;;;;8379515;28;20243;-73
2023/04/12 05:50:34;;;;;;;11.40;6.53;;;;;6.90;95594.00;;;;8382991;28;20199;-72
2023/04/12 05:54:37;;;;;;;10.27;6.03;;;;;7.10;95588.00;;;;8387774;28;20785;-73
2023/04/12 05:58:39;;;;;;;9.03;5.63;;;;;7.20;95581.00;;;;8383940;28;20931;-73
2023/04/12 06:02:43;;;;;;;14.17;6.30;;;;;7.30;95580.00;;;;8384020;28;20238;-73
2023/04/12 06:06:48;;;;;;;16.57;7.33;;;;;7.50;95575.00;;;;8379467;28;20531;-74
2023/04/12 06:10:53;;;;;;;13.43;6.20;;;;;7.60;95581.00;;;;8381621;28;20235;-75
2023/04/12 06:14:56;;;;;;;18.60;6.20;;;;;7.80;95589.00;;;;8382342;28;20736;-75
2023/04/12 06:18:59;;;;;;;11.63;6.67;;;;;7.90;95574.00;;;;8388470;28;20223;-75
2023/04/12 06:23:04;;;;;;;13.57;7.80;;;;;8.00;95573.00;;;;8381192;28;20629;-76
2023/04/12 06:27:06;;;;;;;16.50;8.23;;;;;8.10;95574.00;;;;8377510;28;20553;-74
2023/04/12 06:31:10;;;;;;;9.73;6.57;;;;;8.20;95570.00;;;;8385575;28;20203;-74
2023/04/12 06:35:15;;;;;;;12.57;6.00;;;;;8.20;95556.00;;;;8376983;28;20224;-73
2023/04/12 06:39:19;;;;;;;9.73;6.63;;;;;8.20;95556.00;;;;8379756;28;20238;-73
2023/04/12 06:43:22;;;;;;;9.17;6.43;;;;;8.10;95553.00;;;;8380607;28;20230;-76
2023/04/12 06:47:26;;;;;;;10.43;5.70;;;;;8.10;95554.00;;;;8384206;28;20225;-74
2023/04/12 06:51:30;;;;;;;13.27;6.50;;;;;8.00;95536.00;;;;8380370;28;20192;-73
2023/04/12 06:55:36;;;;;;;9.53;5.47;;;;;8.00;95538.00;;;;8372957;28;20773;-74
2023/04/12 06:59:41;;;;;;;8.17;5.13;;;;;8.00;95539.00;;;;8378290;28;20842;-72
2023/04/12 07:03:44;;;;;;;9.23;5.33;;;;;8.10;95535.00;;;;8375930;28;20255;-73
2023/04/12 07:07:49;;;;;;;12.90;5.87;;;;;8.20;95527.00;;;;8381581;28;21132;-73
2023/04/12 07:11:54;;;;;;;7.93;5.77;;;;;8.30;95531.00;;;;8372243;28;20228;-72
2023/04/12 07:15:59;;;;;;;17.67;6.50;;;;;8.30;95530.00;;;;8372199;28;20677;-74
2023/04/12 07:20:07;;;;;;;10.67;5.90;;;;;8.30;95510.00;;;;8371051;28;20238;-74
2023/04/12 07:24:14;;;;;;;6.97;5.63;;;;;8.60;95513.00;;;;8366518;28;20219;-74
2023/04/12 07:28:22;;;;;;;11.43;5.17;;;;;8.70;95498.00;;;;8375962;28;20253;-73
2023/04/12 07:32:26;;;;;;;12.37;5.43;;;;;8.90;95482.00;;;;8372491;28;20266;-74
2023/04/12 07:36:30;;;;;;;7.93;5.10;;;;;9.10;95478.00;;;;8379021;28;20216;-73
2023/04/12 07:40:38;;;;;;;7.97;4.53;;;;;9.30;95471.00;;;;8381472;28;20219;-73
2023/04/12 07:44:42;;;;;;;8.37;4.13;;;;;9.30;95476.00;;;;8381241;28;20232;-73
2023/04/12 07:48:48;;;;;;;9.77;4.03;;;;;9.30;95468.00;;;;8381360;28;20621;-73
2023/04/12 07:52:55;;;;;;;5.13;3.80;;;;;9.40;95454.00;;;;8374814;28;20672;-72
2023/04/12 07:56:59;;;;;;;6.93;4.17;;;;;9.40;95453.00;;;;8378576;28;20227;-73
2023/04/12 08:01:04;;;;;;;6.20;4.50;;;;;9.60;95461.00;;;;8385276;28;20219;-72
2023/04/12 08:05:08;;;;;;;6.10;3.97;;;;;9.40;95463.00;;;;8382471;28;20649;-73
2023/04/12 08:09:11;;;;;;;10.27;4.00;;;;;9.30;95454.00;;;;8382037;28;20207;-73
2023/04/12 08:13:15;;;;;;;7.97;3.63;;;;;9.40;95448.00;;;;8377659;28;20234;-72
2023/04/12 08:17:20;;;;;;;7.63;4.40;;;;;9.30;95448.00;;;;8383946;28;20204;-73
2023/04/12 08:21:23;;;;;;;8.57;3.90;;;;;9.20;95445.00;;;;8381075;28;20197;-70
2023/04/12 08:25:26;;;;;;;7.10;3.87;;;;;9.20;95450.00;;;;8375110;28;20299;-71
2023/04/12 08:29:33;;;;;;;5.20;3.43;;;;;9.20;95438.00;;;;8380518;28;20196;-71
2023/04/12 08:33:37;;;;;;;7.63;3.77;;;;;9.20;95434.00;;;;8382957;28;20231;-70
2023/04/12 08:37:40;;;;;;;7.63;3.93;;;;;9.40;95430.00;;;;8379869;28;20224;-73
2023/04/12 08:41:47;;;;;;;7.63;4.10;;;;;9.30;95425.00;;;;8380216;28;20200;-72
2023/04/12 08:45:50;;;;;;;6.27;3.27;;;;;9.30;95425.00;;;;8377781;28;20197;-72
2023/04/12 08:49:57;;;;;;;6.00;3.40;;;;;9.30;95414.00;;;;8385374;28;20200;-72
2023/04/12 08:54:00;;;;;;;4.70;3.60;;;;;9.30;95411.00;;;;8383320;28;20484;-72
2023/04/12 08:58:08;;;;;;;7.10;3.50;;;;;9.50;95407.00;;;;8379475;28;20234;-71
2023/04/12 09:02:14;;;;;;;7.27;3.33;;;;;9.70;95399.00;;;;8381477;28;20239;-71
2023/04/12 09:06:18;;;;;;;10.67;4.70;;;;;9.90;95404.00;;;;8374943;28;20207;-71
2023/04/12 09:10:33;;;;;;;8.65;4.72;;;;;10.00;95395.00;;;;8383211;28;20224;-71
2023/04/12 09:14:42;;;;;;;4.75;3.25;;;;;10.10;95391.00;;;;8376187;28;20235;-71
2023/04/12 09:18:50;;;;;;;3.97;2.90;;;;;10.10;95382.00;;;;8361170;28;20874;-72
2023/04/12 09:22:54;;;;;;;6.07;3.17;;;;;10.00;95373.00;;;;8384900;28;20196;-69
2023/04/12 09:27:03;;;;;;;6.90;2.83;;;;;10.00;95370.00;;;;8386438;28;20238;-72
2023/04/12 09:31:16;;;;;;;4.43;3.03;;;;;9.90;95366.00;;;;8383300;28;20192;-72
2023/04/12 09:35:33;;;;;;;6.97;2.77;;;;;10.00;95362.00;;;;8384104;28;20260;-71
2023/04/12 09:39:39;;;;;;;5.93;2.87;;;;;10.10;95345.00;;;;8380051;28;20216;-70
2023/04/12 09:43:46;;;;;;;4.73;2.60;;;;;10.30;95336.00;;;;8380951;28;20200;-70
2023/04/12 09:47:49;;;;;;;3.70;2.67;;;;;10.50;95343.00;;;;8385013;28;20722;-71
2023/04/12 09:51:53;;;;;;;3.58;3.00;;;;;10.80;95327.00;;;;8385500;28;20224;-70
2023/04/12 09:56:03;;;;;;;3.22;2.70;;;;;10.80;95327.00;;;;8385444;28;20217;-72
2023/04/12 10:00:11;;;;;;;3.78;2.72;;;;;10.90;95327.00;;;;8381963;28;20192;-73
2023/04/12 10:04:17;;;;;;;3.85;2.72;;;;;10.90;95313.00;;;;8382320;28;20783;-71
2023/04/12 10:08:22;;;;;;;3.50;2.90;;;;;10.90;95307.00;;;;8382623;28;20193;-72
2023/04/12 10:12:28;;;;;;;2.30;2.20;;;;;11.00;95297.00;;;;8381129;28;20643;-71
2023/04/12 10:16:40;;;;;;;5.03;2.75;;;;;10.80;95294.00;;;;8381411;28;20226;-71
2023/04/12 10:20:43;;;;;;;3.22;2.60;;;;;11.00;95291.00;;;;8379443;28;20229;-71
2023/04/12 10:24:47;;;;;;;4.13;3.00;;;;;11.10;95281.00;;;;8382022;28;20205;-71
2023/04/12 10:29:24;;;;;;;3.03;2.50;;;;;11.00;95273.00;;;;8380482;28;20671;-73
2023/04/12 10:33:30;;;;;;;6.10;2.60;;;;;10.80;95261.00;;;;8378431;28;20243;-73
2023/04/12 10:37:59;;;;;;;4.13;2.55;;;;;10.80;95255.00;;;;8383396;28;20192;-72
2023/04/12 10:42:21;;;;;;;5.05;3.40;;;;;10.80;95243.00;;;;8378876;28;20208;-70
2023/04/12 10:46:50;;;;;;;5.63;3.07;;;;;10.90;95238.00;;;;8377891;28;20207;-70
2023/04/12 10:51:12;;;;;;;2.90;2.70;;;;;10.90;95231.00;;;;8380720;28;20641;-70
2023/04/12 10:55:28;;;;;;;3.17;2.80;;;;;10.80;95234.00;;;;8379784;28;20222;-70
2023/04/12 10:59:54;;;;;;;2.55;2.35;;;;;10.50;95240.00;;;;8377779;28;20204;-69
2023/04/12 11:04:18;;;;;;;4.00;2.78;;;;;10.40;95231.00;;;;8374810;28;20288;-69
2023/04/12 11:08:25;;;;;;;7.87;3.37;;;;;10.60;95230.00;;;;8370648;28;20292;-68
2023/04/12 11:12:30;;;;;;;4.15;2.95;;;;;10.90;95221.00;;;;8380821;28;20220;-68
2023/04/12 11:16:33;;;;;;;4.47;3.63;;;;;11.10;95213.00;;;;8372027;28;20266;-69
2023/04/12 11:20:39;;;;;;;4.13;3.47;;;;;11.20;95214.00;;;;8372323;28;20208;-69
2023/04/12 11:24:44;;;;;;;4.47;3.60;;;;;11.20;95208.00;;;;8371307;28;20236;-69
2023/04/12 11:28:51;;;;;;;6.80;3.58;;;;;11.10;95194.00;;;;8372994;28;20688;-68
2023/04/12 11:32:54;;;;;;;7.88;4.07;;;;;11.20;95186.00;;;;8375156;28;20565;-68
2023/04/12 11:36:59;;;;;;;4.07;3.25;;;;;11.40;95177.00;;;;8375839;28;20330;-68
2023/04/12 11:41:02;;;;;;;5.18;3.80;;;;;11.20;95187.00;;;;8386754;28;20233;-68
2023/04/12 11:45:07;;;;;;;8.98;4.25;;;;;11.10;95184.00;;;;8383761;28;20212;-69
2023/04/12 11:49:20;;;;;;;6.97;4.47;;;;;11.30;95165.00;;;;8381333;28;20198;-68
2023/04/12 11:53:29;;;;;;;5.63;3.45;;;;;11.50;95167.00;;;;8373301;28;20268;-68
2023/04/12 11:57:35;;;;;;;5.38;3.85;;;;;11.50;95171.00;;;;8362128;28;20270;-68
2023/04/12 12:01:38;;;;;;;7.20;4.45;;;;;11.50;95168.00;;;;8379440;28;20227;-70
2023/04/12 12:05:44;;;;;;;7.45;3.92;;;;;11.50;95164.00;;;;8374353;28;20226;-69
2023/04/12 12:09:50;;;;;;;8.82;4.47;;;;;11.50;95164.00;;;;8379122;28;20234;-70
2023/04/12 12:13:59;;;;;;;6.22;4.07;;;;;11.70;95155.00;;;;8339248;28;20872;-69
2023/04/12 12:18:02;;;;;;;6.40;3.78;;;;;11.70;95158.00;;;;8376523;28;20277;-69
2023/04/12 12:22:11;;;;;;;5.07;4.25;;;;;11.60;95152.00;;;;8375461;28;20278;-69
2023/04/12 12:26:21;;;;;;;6.43;4.32;;;;;11.60;95159.00;;;;8374916;28;20197;-72
2023/04/12 12:30:24;;;;;;;4.93;4.15;;;;;11.40;95141.00;;;;8386749;28;20227;-71
2023/04/12 12:34:34;;;;;;;7.57;4.82;;;;;11.40;95134.00;;;;8379402;28;20253;-70
2023/04/12 12:38:41;;;;;;;4.90;4.40;;;;;11.90;95136.00;;;;8384607;28;20201;-71
2023/04/12 12:42:53;;;;;;;5.00;4.00;;;;;12.00;95135.00;;;;8377200;28;20620;-73
2023/04/12 12:46:59;;;;;;;6.10;4.10;;;;;11.70;95125.00;;;;8381246;28;20247;-73
2023/04/12 12:51:16;;;;;;;4.97;4.32;;;;;11.60;95124.00;;;;8383740;28;20300;-71
2023/04/12 12:55:23;;;;;;;6.35;4.78;;;;;11.50;95116.00;;;;8380249;28;20234;-71
2023/04/12 12:59:27;;;;;;;5.40;4.78;;;;;11.60;95116.00;;;;8382299;28;20218;-75
2023/04/12 13:03:31;;;;;;;7.90;5.07;;;;;12.00;95104.00;;;;8362518;28;20712;-72
2023/04/12 13:07:38;;;;;;;9.30;4.93;;;;;12.50;95089.00;;;;8385010;28;20534;-71
2023/04/12 13:11:41;;;;;;;5.28;4.13;;;;;12.70;95082.00;;;;8382417;28;21010;-73
2023/04/12 13:15:51;;;;;;;9.00;4.90;;;;;13.10;95071.00;;;;8384441;28;20229;-73
2023/04/12 13:20:00;;;;;;;6.03;4.55;;;;;13.20;95069.00;;;;8384337;28;20278;-74
2023/04/12 13:24:05;;;;;;;6.13;4.50;;;;;13.50;95060.00;;;;8389520;28;20203;-74
2023/04/12 13:28:11;;;;;;;8.50;4.72;;;;;13.70;95056.00;;;;8386105;28;20252;-74
2023/04/12 13:32:17;;;;;;;6.25;4.82;;;;;13.60;95047.00;;;;8367045;28;20206;-74
2023/04/12 13:36:23;;;;;;;8.57;4.97;;;;;13.40;95042.00;;;;8382764;28;20230;-74
2023/04/12 13:40:25;;;;;;;8.15;5.00;;;;;13.30;95033.00;;;;8371690;28;20196;-75
2023/04/12 13:44:29;;;;;;;7.43;4.82;;;;;13.20;95036.00;;;;8379851;28;20222;-74
2023/04/12 13:48:35;;;;;;;9.38;5.70;;;;;13.20;95022.00;;;;8391904;28;20199;-75
2023/04/12 13:52:39;;;;;;;7.03;4.38;;;;;13.20;95024.00;;;;8384592;28;20196;-75
2023/04/12 13:56:45;;;;;;;8.35;5.05;;;;;13.10;95021.00;;;;8362528;28;20245;-75
2023/04/12 14:00:55;;;;;;;6.25;4.38;;;;;13.10;95018.00;;;;8364909;28;20302;-80
2023/04/12 14:04:59;;;;;;;6.43;4.47;;;;;13.00;95004.00;;;;8378614;28;20211;-77
2023/04/12 14:09:04;;;;;;;13.25;9.45;;;;;13.00;94999.00;;;;8385888;28;20290;-78
2023/04/12 14:13:10;;;;;;;22.48;20.02;;;;;13.00;95004.00;;;;8382408;28;20249;-77
2023/04/12 14:17:15;;;;;;;20.38;17.23;;;;;12.90;95007.00;;;;8388113;28;20330;-79
2023/04/12 14:21:21;;;;;;;23.27;18.40;;;;;12.90;95003.00;;;;8388711;28;20229;-77
2023/04/12 14:25:24;;;;;;;85.53;59.22;;;;;12.90;94996.00;;;;8379941;28;20211;-79
2023/04/12 14:29:27;;;;;;;69.78;46.53;;;;;12.90;94987.00;;;;8382803;28;20229;-78
2023/04/12 14:33:32;;;;;;;288.92;187.95;;;;;13.10;94991.00;;;;8376877;28;20203;-77
2023/04/12 14:37:37;;;;;;;1091.20;612.72;;;;;13.20;94985.00;;;;8375625;28;20234;-79
2023/04/12 14:41:47;;;;;;;54.95;41.03;;;;;13.30;94986.00;;;;8375329;28;20203;-81
2023/04/12 14:45:55;;;;;;;283.75;150.07;;;;;13.50;94979.00;;;;8388181;28;20215;-74
2023/04/12 14:50:00;;;;;;;323.10;198.13;;;;;13.70;94972.00;;;;8372392;28;20196;-77
2023/04/12 14:54:07;;;;;;;14.15;10.70;;;;;13.70;94968.00;;;;8378121;28;20671;-76
2023/04/12 14:58:15;;;;;;;11.60;10.43;;;;;13.50;94965.00;;;;8382635;28;20223;-79
2023/04/12 15:02:18;;;;;;;8.52;7.72;;;;;13.40;94961.00;;;;8381191;28;20712;-75
2023/04/12 15:06:26;;;;;;;11.00;7.78;;;;;13.30;94978.00;;;;8381246;28;20196;-76
2023/04/12 15:10:39;;;;;;;6.60;5.60;;;;;13.20;94960.00;;;;8363395;28;20196;-77
2023/04/12 15:14:43;;;;;;;33.78;21.00;;;;;13.20;94962.00;;;;8384324;28;20879;-76
2023/04/12 15:18:52;;;;;;;7.88;6.32;;;;;13.20;94965.00;;;;8381526;28;20230;-75
2023/04/12 15:22:55;;;;;;;9.77;6.38;;;;;13.10;94957.00;;;;8380850;28;20261;-76
2023/04/12 15:27:00;;;;;;;8.35;6.70;;;;;13.00;94961.00;;;;8362892;28;20291;-76
2023/04/12 15:31:08;;;;;;;8.75;5.10;;;;;13.00;94960.00;;;;8382329;28;20210;-74
2023/04/12 15:35:19;;;;;;;10.65;6.75;;;;;13.10;94962.00;;;;8382682;28;20293;-77
2023/04/12 15:39:30;;;;;;;11.23;10.13;;;;;13.20;94959.00;;;;8382498;28;20199;-75
2023/04/12 15:43:40;;;;;;;7.78;4.75;;;;;13.20;94946.00;;;;8354667;28;20727;-77
2023/04/12 15:47:45;;;;;;;6.97;4.65;;;;;13.10;94941.00;;;;8380145;28;20200;-77
2023/04/12 15:51:48;;;;;;;6.70;5.63;;;;;13.10;94946.00;;;;8384832;28;20226;-74
2023/04/12 15:55:54;;;;;;;8.05;5.00;;;;;13.10;94936.00;;;;8379583;28;20223;-76
2023/04/12 15:59:58;;;;;;;7.30;6.30;;;;;13.00;94936.00;;;;8381110;28;20252;-76
2023/04/12 16:04:05;;;;;;;6.90;5.22;;;;;13.00;94930.00;;;;8380962;28;20230;-75
2023/04/12 16:08:09;;;;;;;7.15;4.38;;;;;12.90;94931.00;;;;8387438;28;20233;-75
2023/04/12 16:12:12;;;;;;;7.80;3.90;;;;;12.90;94939.00;;;;8385692;28;20230;-74
2023/04/12 16:16:35;;;;;;;9.18;4.30;;;;;12.90;94923.00;;;;8381489;28;20219;-78
2023/04/12 16:20:41;;;;;;;6.38;4.72;;;;;12.90;94920.00;;;;8381677;28;20247;-71
2023/04/12 16:24:44;;;;;;;4.93;4.30;;;;;12.90;94917.00;;;;8380104;28;20206;-73
2023/04/12 16:28:47;;;;;;;4.50;3.58;;;;;12.90;94906.00;;;;8381097;28;20202;-72
2023/04/12 16:32:54;;;;;;;5.45;4.30;;;;;12.80;94908.00;;;;8387603;28;20286;-72
2023/04/12 16:36:57;;;;;;;9.18;4.80;;;;;12.80;94904.00;;;;8384789;28;20226;-70
2023/04/12 16:41:01;;;;;;;12.30;4.75;;;;;12.80;94898.00;;;;8379106;28;20222;-72
2023/04/12 16:45:04;;;;;;;9.07;4.43;;;;;12.70;94881.00;;;;8373996;28;20291;-72
2023/04/12 16:49:10;;;;;;;7.90;6.00;;;;;12.70;94857.00;;;;8381231;28;20198;-71
2023/04/12 16:53:15;;;;;;;11.15;5.65;;;;;12.60;94865.00;;;;8375000;28;20317;-73
2023/04/12 16:57:18;;;;;;;6.68;5.13;;;;;12.50;94856.00;;;;8381559;28;20257;-71
2023/04/12 17:01:21;;;;;;;7.55;5.75;;;;;12.40;94859.00;;;;8380616;28;20238;-71
2023/04/12 17:05:25;;;;;;;8.90;6.30;;;;;12.40;94857.00;;;;8382572;28;20220;-72
2023/04/12 17:09:28;;;;;;;10.95;7.40;;;;;12.50;94860.00;;;;8376034;28;20859;-72
2023/04/12 17:13:35;;;;;;;12.30;8.27;;;;;12.50;94871.00;;;;8373838;28;20461;-73
2023/04/12 17:17:38;;;;;;;15.88;9.70;;;;;12.40;94868.00;;;;8376018;28;20720;-74
2023/04/12 17:21:43;;;;;;;13.93;8.45;;;;;12.30;94865.00;;;;8366294;28;20513;-74
2023/04/12 17:25:48;;;;;;;13.02;7.57;;;;;12.30;94856.00;;;;8375101;28;20690;-74
2023/04/12 17:29:51;;;;;;;10.57;7.47;;;;;12.20;94847.00;;;;8378561;28;20692;-74
2023/04/12 17:33:54;;;;;;;13.15;7.72;;;;;12.10;94842.00;;;;8380008;28;20192;-74
2023/04/12 17:38:03;;;;;;;13.13;7.35;;;;;11.90;94833.00;;;;8384125;28;20227;-74
2023/04/12 17:42:06;;;;;;;11.68;7.43;;;;;11.80;94830.00;;;;8381686;28;20199;-73
2023/04/12 17:46:12;;;;;;;12.82;7.70;;;;;11.80;94831.00;;;;8379102;28;20201;-73
2023/04/12 17:50:15;;;;;;;9.68;7.38;;;;;11.70;94831.00;;;;8385269;28;20251;-73
2023/04/12 17:54:20;;;;;;;14.68;7.15;;;;;11.70;94827.00;;;;8385821;28;20205;-73
2023/04/12 17:58:23;;;;;;;25.63;19.38;;;;;11.60;94819.00;;;;8380540;28;20266;-73
2023/04/12 18:02:29;;;;;;;302.67;193.38;;;;;11.50;94821.00;;;;8377556;28;20232;-73
2023/04/12 18:06:34;;;;;;;62.00;35.30;;;;;11.50;94821.00;;;;8369922;28;20200;-74
2023/04/12 18:10:39;;;;;;;468.13;274.88;;;;;11.40;94823.00;;;;8375620;28;20200;-75
2023/04/12 18:14:46;;;;;;;20.63;13.65;;;;;11.40;94815.00;;;;8376609;28;20200;-76
2023/04/12 18:18:53;;;;;;;69.95;37.80;;;;;11.30;94836.00;;;;8383351;28;20228;-75
2023/04/12 18:22:57;;;;;;;41.88;23.48;;;;;11.20;94824.00;;;;8381684;28;20752;-75
2023/04/12 18:27:05;;;;;;;130.35;69.15;;;;;11.20;94837.00;;;;8382248;28;20204;-73
2023/04/12 18:31:08;;;;;;;17.63;10.25;;;;;11.20;94858.00;;;;8381383;28;20196;-73
2023/04/12 18:35:11;;;;;;;218.45;104.32;;;;;11.10;94913.00;;;;8381154;28;20533;-76
2023/04/12 18:39:16;;;;;;;97.97;66.28;;;;;11.10;94906.00;;;;8383554;28;20848;-76
2023/04/12 18:43:24;;;;;;;10.77;8.77;;;;;11.10;94917.00;;;;8379359;28;20283;-76
2023/04/12 18:47:27;;;;;;;7.85;6.57;;;;;11.10;94915.00;;;;8384858;28;20602;-77
2023/04/12 18:51:33;;;;;;;8.10;5.13;;;;;11.20;94916.00;;;;8387586;28;20202;-78
2023/04/12 18:55:37;;;;;;;4.47;3.33;;;;;11.20;94912.00;;;;8378183;28;20589;-80
2023/04/12 18:59:46;;;;;;;5.50;3.10;;;;;11.30;94927.00;;;;8363079;28;20235;-80
2023/04/12 19:03:52;;;;;;;3.80;3.50;;;;;11.30;94935.00;;;;8377652;28;20227;-81
2023/04/12 19:07:55;;;;;;;12.13;8.02;;;;;11.30;94936.00;;;;8378007;28;20196;-80
2023/04/12 19:11:58;;;;;;;3.65;2.95;;;;;11.40;94933.00;;;;8372243;28;20201;-81
2023/04/12 19:20:22;;;;;;;5.47;3.30;;;;;11.40;94945.00;;;;8377790;28;20819;-77
2023/04/12 19:24:25;;;;;;;2.13;1.95;;;;;11.40;94936.00;;;;8382481;28;20200;-82
2023/04/12 19:28:28;;;;;;;2.22;2.03;;;;;11.40;94931.00;;;;8385334;28;20735;-82
2023/04/12 19:32:32;;;;;;;3.60;2.30;;;;;11.40;94945.00;;;;8381708;28;20204;-80
2023/04/12 19:36:39;;;;;;;3.42;2.10;;;;;11.30;94953.00;;;;8377735;28;20605;-78
2023/04/12 19:40:44;;;;;;;3.25;1.70;;;;;11.20;94965.00;;;;8376081;28;20235;-80
2023/04/12 19:44:46;;;;;;;3.60;1.77;;;;;11.20;94973.00;;;;8362341;28;20210;-80
2023/04/12 19:48:53;;;;;;;1.63;1.50;;;;;11.00;94969.00;;;;8381821;28;20194;-79
2023/04/12 19:53:01;;;;;;;1.10;1.10;;;;;10.90;94982.00;;;;8357405;28;20674;-81
2023/04/12 19:57:06;;;;;;;1.15;1.10;;;;;10.70;94990.00;;;;8372150;28;20200;-78
2023/04/12 20:01:15;;;;;;;1.45;1.35;;;;;10.60;94995.00;;;;8374619;28;20207;-78
2023/04/12 20:05:21;;;;;;;3.10;1.43;;;;;10.50;95001.00;;;;8365030;28;20199;-79
2023/04/12 20:09:24;;;;;;;1.02;1.02;;;;;10.50;94994.00;;;;8384888;28;20200;-79
2023/04/12 20:13:29;;;;;;;1.35;1.20;;;;;10.40;94986.00;;;;8358232;28;20241;-77
2023/04/12 20:17:33;;;;;;;1.15;1.15;;;;;10.40;94981.00;;;;8380705;28;20291;-77
2023/04/12 20:21:37;;;;;;;1.27;1.27;;;;;10.40;94982.00;;;;8388558;28;20196;-75
2023/04/12 20:25:50;;;;;;;1.10;1.10;;;;;10.40;94963.00;;;;8380085;28;20212;-76
2023/04/12 20:29:53;;;;;;;1.05;1.05;;;;;10.40;94964.00;;;;8384389;28;20200;-73
2023/04/12 20:33:57;;;;;;;3.63;1.75;;;;;10.40;94971.00;;;;8383122;28;20674;-75